sensor_id;sensor_type;location;lat;lon;timestamp;temperature;humidity
61979;DHT22;47938;48.176;16.414;2022-09-09T00:04:35;16.80;84.60
61979;DHT22;47938;48.176;16.414;2022-09-09T00:07:03;16.80;83.60
61979;DHT22;47938;48.176;16.414;2022-09-09T00:09:34;16.80;84.50
61979;DHT22;47938;48.176;16.414;2022-09-09T00:12:02;16.90;84.10
61979;DHT22;47938;48.176;16.414;2022-09-09T00:14:45;16.80;83.30
61979;DHT22;47938;48.176;16.414;2022-09-09T00:20:12;16.80;83.50
61979;DHT22;47938;48.176;16.414;2022-09-09T00:22:46;16.80;82.90
61979;DHT22;47938;48.176;16.414;2022-09-09T00:25:39;16.80;83.40
61979;DHT22;47938;48.176;16.414;2022-09-09T00:28:19;16.80;83.10
61979;DHT22;47938;48.176;16.414;2022-09-09T00:30:46;16.70;83.00
61979;DHT22;47938;48.176;16.414;2022-09-09T00:33:13;16.70;83.50
61979;DHT22;47938;48.176;16.414;2022-09-09T00:35:45;16.70;84.20
61979;DHT22;47938;48.176;16.414;2022-09-09T00:38:37;16.70;84.10
61979;DHT22;47938;48.176;16.414;2022-09-09T00:43:44;16.70;84.30
61979;DHT22;47938;48.176;16.414;2022-09-09T00:48:58;16.60;85.00
61979;DHT22;47938;48.176;16.414;2022-09-09T00:51:38;16.60;85.20
61979;DHT22;47938;48.176;16.414;2022-09-09T01:00:15;16.60;85.50
61979;DHT22;47938;48.176;16.414;2022-09-09T01:02:48;16.60;85.10
61979;DHT22;47938;48.176;16.414;2022-09-09T01:07:50;16.50;84.70
61979;DHT22;47938;48.176;16.414;2022-09-09T01:13:14;16.40;85.00
61979;DHT22;47938;48.176;16.414;2022-09-09T01:15:44;16.40;85.80
61979;DHT22;47938;48.176;16.414;2022-09-09T01:18:14;16.40;86.10
61979;DHT22;47938;48.176;16.414;2022-09-09T01:20:49;16.30;86.50
61979;DHT22;47938;48.176;16.414;2022-09-09T01:26:18;16.30;86.00
61979;DHT22;47938;48.176;16.414;2022-09-09T01:28:50;16.30;85.70
61979;DHT22;47938;48.176;16.414;2022-09-09T01:31:21;16.30;85.50
61979;DHT22;47938;48.176;16.414;2022-09-09T01:33:47;16.20;85.40
61979;DHT22;47938;48.176;16.414;2022-09-09T01:36:21;16.30;85.20
61979;DHT22;47938;48.176;16.414;2022-09-09T01:38:49;16.20;84.90
61979;DHT22;47938;48.176;16.414;2022-09-09T01:41:15;16.20;85.00
61979;DHT22;47938;48.176;16.414;2022-09-09T01:43:40;16.20;85.40
61979;DHT22;47938;48.176;16.414;2022-09-09T01:46:06;16.20;85.40
61979;DHT22;47938;48.176;16.414;2022-09-09T01:48:32;16.20;85.50
61979;DHT22;47938;48.176;16.414;2022-09-09T01:50:58;16.20;85.60
61979;DHT22;47938;48.176;16.414;2022-09-09T01:53:24;16.20;86.10
61979;DHT22;47938;48.176;16.414;2022-09-09T01:56:22;16.20;86.30
61979;DHT22;47938;48.176;16.414;2022-09-09T02:04:27;16.10;86.70
61979;DHT22;47938;48.176;16.414;2022-09-09T02:06:57;16.10;87.20
61979;DHT22;47938;48.176;16.414;2022-09-09T02:09:24;16.10;86.80
61979;DHT22;47938;48.176;16.414;2022-09-09T02:12:02;16.10;86.70
61979;DHT22;47938;48.176;16.414;2022-09-09T02:14:39;16.10;87.70
61979;DHT22;47938;48.176;16.414;2022-09-09T02:17:11;16.00;86.30
61979;DHT22;47938;48.176;16.414;2022-09-09T02:19:44;16.00;87.40
61979;DHT22;47938;48.176;16.414;2022-09-09T02:22:10;16.10;87.80
61979;DHT22;47938;48.176;16.414;2022-09-09T02:24:38;16.10;86.80
61979;DHT22;47938;48.176;16.414;2022-09-09T02:27:06;16.10;85.90
61979;DHT22;47938;48.176;16.414;2022-09-09T02:29:38;16.00;86.60
61979;DHT22;47938;48.176;16.414;2022-09-09T02:32:07;16.00;86.80
61979;DHT22;47938;48.176;16.414;2022-09-09T02:34:36;16.00;87.80
61979;DHT22;47938;48.176;16.414;2022-09-09T02:37:06;16.00;87.10
61979;DHT22;47938;48.176;16.414;2022-09-09T02:39:33;16.00;87.20
61979;DHT22;47938;48.176;16.414;2022-09-09T02:41:59;16.00;87.10
61979;DHT22;47938;48.176;16.414;2022-09-09T02:44:24;16.00;87.50
61979;DHT22;47938;48.176;16.414;2022-09-09T02:52:50;15.90;88.90
61979;DHT22;47938;48.176;16.414;2022-09-09T02:57:47;15.90;89.20
61979;DHT22;47938;48.176;16.414;2022-09-09T03:00:13;15.90;89.30
61979;DHT22;47938;48.176;16.414;2022-09-09T03:02:39;15.90;89.70
61979;DHT22;47938;48.176;16.414;2022-09-09T03:05:06;15.90;90.30
61979;DHT22;47938;48.176;16.414;2022-09-09T03:07:31;15.80;90.90
61979;DHT22;47938;48.176;16.414;2022-09-09T03:09:57;15.80;91.60
61979;DHT22;47938;48.176;16.414;2022-09-09T03:12:23;15.80;91.70
61979;DHT22;47938;48.176;16.414;2022-09-09T03:14:48;15.70;92.50
61979;DHT22;47938;48.176;16.414;2022-09-09T03:17:14;15.70;92.10
61979;DHT22;47938;48.176;16.414;2022-09-09T03:19:39;15.70;92.30
61979;DHT22;47938;48.176;16.414;2022-09-09T03:22:05;15.70;92.50
61979;DHT22;47938;48.176;16.414;2022-09-09T03:24:31;15.70;92.70
61979;DHT22;47938;48.176;16.414;2022-09-09T03:26:56;15.70;92.40
61979;DHT22;47938;48.176;16.414;2022-09-09T03:29:22;15.70;92.10
61979;DHT22;47938;48.176;16.414;2022-09-09T03:31:47;15.60;92.00
61979;DHT22;47938;48.176;16.414;2022-09-09T03:34:13;15.60;91.40
61979;DHT22;47938;48.176;16.414;2022-09-09T03:36:39;15.50;91.90
61979;DHT22;47938;48.176;16.414;2022-09-09T03:39:04;15.50;92.10
61979;DHT22;47938;48.176;16.414;2022-09-09T03:41:30;15.50;93.60
61979;DHT22;47938;48.176;16.414;2022-09-09T03:43:56;15.40;93.70
61979;DHT22;47938;48.176;16.414;2022-09-09T03:46:24;15.40;94.20
61979;DHT22;47938;48.176;16.414;2022-09-09T03:48:50;15.40;94.50
61979;DHT22;47938;48.176;16.414;2022-09-09T03:51:15;15.40;95.40
61979;DHT22;47938;48.176;16.414;2022-09-09T03:53:42;15.40;95.40
61979;DHT22;47938;48.176;16.414;2022-09-09T03:56:07;15.30;95.70
61979;DHT22;47938;48.176;16.414;2022-09-09T03:58:34;15.10;96.60
61979;DHT22;47938;48.176;16.414;2022-09-09T04:01:02;14.90;98.70
61979;DHT22;47938;48.176;16.414;2022-09-09T04:03:29;14.80;98.60
61979;DHT22;47938;48.176;16.414;2022-09-09T04:05:56;14.80;99.60
61979;DHT22;47938;48.176;16.414;2022-09-09T04:08:22;14.70;99.90
61979;DHT22;47938;48.176;16.414;2022-09-09T04:10:49;14.70;99.90
61979;DHT22;47938;48.176;16.414;2022-09-09T04:13:16;14.70;99.90
61979;DHT22;47938;48.176;16.414;2022-09-09T04:15:43;14.70;99.90
61979;DHT22;47938;48.176;16.414;2022-09-09T04:18:09;14.70;99.90
61979;DHT22;47938;48.176;16.414;2022-09-09T04:20:35;14.80;99.90
61979;DHT22;47938;48.176;16.414;2022-09-09T04:23:00;14.80;99.90
61979;DHT22;47938;48.176;16.414;2022-09-09T04:25:26;14.90;99.90
61979;DHT22;47938;48.176;16.414;2022-09-09T04:27:55;14.90;99.90
61979;DHT22;47938;48.176;16.414;2022-09-09T04:30:21;14.90;99.70
61979;DHT22;47938;48.176;16.414;2022-09-09T04:32:47;14.90;99.90
61979;DHT22;47938;48.176;16.414;2022-09-09T04:35:12;14.90;99.90
61979;DHT22;47938;48.176;16.414;2022-09-09T04:37:38;14.90;99.90
61979;DHT22;47938;48.176;16.414;2022-09-09T04:40:04;14.90;99.20
61979;DHT22;47938;48.176;16.414;2022-09-09T04:42:37;14.90;99.00
61979;DHT22;47938;48.176;16.414;2022-09-09T04:45:03;15.00;99.90
61979;DHT22;47938;48.176;16.414;2022-09-09T04:47:29;15.00;99.50
61979;DHT22;47938;48.176;16.414;2022-09-09T04:49:54;15.00;99.70
61979;DHT22;47938;48.176;16.414;2022-09-09T04:52:20;15.00;99.00
61979;DHT22;47938;48.176;16.414;2022-09-09T04:54:46;15.00;99.10
61979;DHT22;47938;48.176;16.414;2022-09-09T04:57:12;15.00;99.10
61979;DHT22;47938;48.176;16.414;2022-09-09T04:59:38;15.00;99.30
61979;DHT22;47938;48.176;16.414;2022-09-09T05:02:04;14.90;99.10
61979;DHT22;47938;48.176;16.414;2022-09-09T05:04:29;15.00;99.20
61979;DHT22;47938;48.176;16.414;2022-09-09T05:06:55;15.00;99.40
61979;DHT22;47938;48.176;16.414;2022-09-09T05:09:21;15.00;99.20
61979;DHT22;47938;48.176;16.414;2022-09-09T05:11:47;15.10;98.50
61979;DHT22;47938;48.176;16.414;2022-09-09T05:14:12;15.20;97.80
61979;DHT22;47938;48.176;16.414;2022-09-09T05:16:38;15.40;97.20
61979;DHT22;47938;48.176;16.414;2022-09-09T05:19:03;15.50;96.50
61979;DHT22;47938;48.176;16.414;2022-09-09T05:21:29;15.70;95.90
61979;DHT22;47938;48.176;16.414;2022-09-09T05:23:55;15.90;94.50
61979;DHT22;47938;48.176;16.414;2022-09-09T05:26:21;16.10;93.40
61979;DHT22;47938;48.176;16.414;2022-09-09T05:28:47;16.50;92.30
61979;DHT22;47938;48.176;16.414;2022-09-09T05:31:15;16.90;89.80
61979;DHT22;47938;48.176;16.414;2022-09-09T05:33:42;17.00;87.30
61979;DHT22;47938;48.176;16.414;2022-09-09T05:36:12;17.20;85.40
61979;DHT22;47938;48.176;16.414;2022-09-09T05:38:38;17.50;83.60
61979;DHT22;47938;48.176;16.414;2022-09-09T05:41:05;18.10;80.80
61979;DHT22;47938;48.176;16.414;2022-09-09T05:43:31;18.30;76.10
61979;DHT22;47938;48.176;16.414;2022-09-09T05:46:03;18.40;75.00
61979;DHT22;47938;48.176;16.414;2022-09-09T05:48:34;18.50;75.20
61979;DHT22;47938;48.176;16.414;2022-09-09T05:51:01;18.90;73.40
61979;DHT22;47938;48.176;16.414;2022-09-09T05:53:27;18.80;70.90
61979;DHT22;47938;48.176;16.414;2022-09-09T05:56:06;18.90;71.30
61979;DHT22;47938;48.176;16.414;2022-09-09T05:58:33;18.90;71.60
61979;DHT22;47938;48.176;16.414;2022-09-09T06:01:11;19.00;72.20
61979;DHT22;47938;48.176;16.414;2022-09-09T06:03:39;19.10;69.90
61979;DHT22;47938;48.176;16.414;2022-09-09T06:06:09;19.00;71.70
61979;DHT22;47938;48.176;16.414;2022-09-09T06:08:38;18.90;69.60
61979;DHT22;47938;48.176;16.414;2022-09-09T06:11:16;19.50;70.00
61979;DHT22;47938;48.176;16.414;2022-09-09T06:13:42;20.00;67.40
61979;DHT22;47938;48.176;16.414;2022-09-09T06:16:13;19.00;67.50
61979;DHT22;47938;48.176;16.414;2022-09-09T06:18:40;19.30;67.30
61979;DHT22;47938;48.176;16.414;2022-09-09T06:21:29;19.90;65.50
61979;DHT22;47938;48.176;16.414;2022-09-09T06:23:53;20.60;65.20
61979;DHT22;47938;48.176;16.414;2022-09-09T06:26:23;21.90;60.60
61979;DHT22;47938;48.176;16.414;2022-09-09T06:28:50;22.80;56.50
61979;DHT22;47938;48.176;16.414;2022-09-09T06:31:18;23.10;53.70
61979;DHT22;47938;48.176;16.414;2022-09-09T06:33:43;23.20;52.90
61979;DHT22;47938;48.176;16.414;2022-09-09T06:36:15;22.00;55.70
61979;DHT22;47938;48.176;16.414;2022-09-09T06:38:41;21.60;58.80
61979;DHT22;47938;48.176;16.414;2022-09-09T06:41:08;21.80;57.70
61979;DHT22;47938;48.176;16.414;2022-09-09T06:43:34;22.00;56.50
61979;DHT22;47938;48.176;16.414;2022-09-09T06:46:22;21.70;57.20
61979;DHT22;47938;48.176;16.414;2022-09-09T06:48:47;22.30;56.80
61979;DHT22;47938;48.176;16.414;2022-09-09T06:51:18;23.00;54.60
61979;DHT22;47938;48.176;16.414;2022-09-09T06:53:45;23.10;54.00
61979;DHT22;47938;48.176;16.414;2022-09-09T06:58:37;22.90;54.00
61979;DHT22;47938;48.176;16.414;2022-09-09T07:01:07;22.80;54.20
61979;DHT22;47938;48.176;16.414;2022-09-09T07:03:33;22.20;54.80
61979;DHT22;47938;48.176;16.414;2022-09-09T07:05:58;22.20;56.80
61979;DHT22;47938;48.176;16.414;2022-09-09T07:08:24;22.50;56.70
61979;DHT22;47938;48.176;16.414;2022-09-09T07:10:51;22.10;55.70
61979;DHT22;47938;48.176;16.414;2022-09-09T07:13:17;22.20;56.20
61979;DHT22;47938;48.176;16.414;2022-09-09T07:15:42;21.20;59.20
61979;DHT22;47938;48.176;16.414;2022-09-09T07:18:08;20.70;62.00
61979;DHT22;47938;48.176;16.414;2022-09-09T07:20:33;20.40;65.90
61979;DHT22;47938;48.176;16.414;2022-09-09T07:22:59;20.50;63.60
61979;DHT22;47938;48.176;16.414;2022-09-09T07:25:25;20.60;64.00
61979;DHT22;47938;48.176;16.414;2022-09-09T07:27:50;21.20;62.40
61979;DHT22;47938;48.176;16.414;2022-09-09T07:30:16;21.50;61.40
61979;DHT22;47938;48.176;16.414;2022-09-09T07:32:42;21.60;60.40
61979;DHT22;47938;48.176;16.414;2022-09-09T07:35:07;21.80;61.50
61979;DHT22;47938;48.176;16.414;2022-09-09T07:37:36;22.30;58.40
61979;DHT22;47938;48.176;16.414;2022-09-09T07:40:02;22.50;58.70
61979;DHT22;47938;48.176;16.414;2022-09-09T07:42:27;22.30;57.20
61979;DHT22;47938;48.176;16.414;2022-09-09T07:44:53;21.60;59.40
61979;DHT22;47938;48.176;16.414;2022-09-09T07:47:19;21.30;60.70
61979;DHT22;47938;48.176;16.414;2022-09-09T07:49:44;21.40;62.00
61979;DHT22;47938;48.176;16.414;2022-09-09T07:52:10;21.70;60.80
61979;DHT22;47938;48.176;16.414;2022-09-09T07:54:35;21.70;60.90
61979;DHT22;47938;48.176;16.414;2022-09-09T07:57:01;21.80;59.90
61979;DHT22;47938;48.176;16.414;2022-09-09T07:59:27;21.60;61.90
61979;DHT22;47938;48.176;16.414;2022-09-09T08:01:52;21.70;61.60
61979;DHT22;47938;48.176;16.414;2022-09-09T08:04:20;21.90;61.20
61979;DHT22;47938;48.176;16.414;2022-09-09T08:06:58;22.00;59.50
61979;DHT22;47938;48.176;16.414;2022-09-09T08:09:24;22.10;59.70
61979;DHT22;47938;48.176;16.414;2022-09-09T08:11:50;22.30;58.60
61979;DHT22;47938;48.176;16.414;2022-09-09T08:14:16;21.70;59.20
61979;DHT22;47938;48.176;16.414;2022-09-09T08:16:44;21.80;60.70
61979;DHT22;47938;48.176;16.414;2022-09-09T08:19:10;22.00;59.90
61979;DHT22;47938;48.176;16.414;2022-09-09T08:21:38;22.20;59.60
61979;DHT22;47938;48.176;16.414;2022-09-09T08:24:04;22.30;59.70
61979;DHT22;47938;48.176;16.414;2022-09-09T08:26:50;22.50;58.30
61979;DHT22;47938;48.176;16.414;2022-09-09T08:29:16;22.40;58.10
61979;DHT22;47938;48.176;16.414;2022-09-09T08:31:52;22.90;57.40
61979;DHT22;47938;48.176;16.414;2022-09-09T08:34:18;22.30;57.60
61979;DHT22;47938;48.176;16.414;2022-09-09T08:36:45;21.60;60.60
61979;DHT22;47938;48.176;16.414;2022-09-09T08:39:12;22.20;59.40
61979;DHT22;47938;48.176;16.414;2022-09-09T08:52:04;23.00;54.70
61979;DHT22;47938;48.176;16.414;2022-09-09T08:54:34;23.00;55.90
61979;DHT22;47938;48.176;16.414;2022-09-09T08:57:00;23.20;55.20
61979;DHT22;47938;48.176;16.414;2022-09-09T08:59:25;23.30;54.50
61979;DHT22;47938;48.176;16.414;2022-09-09T09:02:19;23.10;54.30
61979;DHT22;47938;48.176;16.414;2022-09-09T09:08:16;22.90;54.70
61979;DHT22;47938;48.176;16.414;2022-09-09T09:10:50;22.90;55.70
61979;DHT22;47938;48.176;16.414;2022-09-09T09:18:54;22.20;55.50
61979;DHT22;47938;48.176;16.414;2022-09-09T09:21:42;22.20;56.00
61979;DHT22;47938;48.176;16.414;2022-09-09T09:26:43;23.00;54.40
61979;DHT22;47938;48.176;16.414;2022-09-09T09:29:17;23.40;52.80
61979;DHT22;47938;48.176;16.414;2022-09-09T09:31:47;23.60;52.00
61979;DHT22;47938;48.176;16.414;2022-09-09T09:34:13;23.80;51.50
61979;DHT22;47938;48.176;16.414;2022-09-09T09:36:43;23.80;51.20
61979;DHT22;47938;48.176;16.414;2022-09-09T09:39:09;23.90;51.60
61979;DHT22;47938;48.176;16.414;2022-09-09T09:41:41;24.00;51.50
61979;DHT22;47938;48.176;16.414;2022-09-09T09:44:40;23.70;53.20
61979;DHT22;47938;48.176;16.414;2022-09-09T09:47:13;23.80;53.30
61979;DHT22;47938;48.176;16.414;2022-09-09T09:49:39;23.80;53.10
61979;DHT22;47938;48.176;16.414;2022-09-09T09:52:20;23.40;52.80
61979;DHT22;47938;48.176;16.414;2022-09-09T09:54:46;23.50;53.20
61979;DHT22;47938;48.176;16.414;2022-09-09T09:57:14;23.60;53.60
61979;DHT22;47938;48.176;16.414;2022-09-09T09:59:41;23.80;53.20
61979;DHT22;47938;48.176;16.414;2022-09-09T10:04:39;24.00;52.50
61979;DHT22;47938;48.176;16.414;2022-09-09T10:07:31;24.10;52.00
61979;DHT22;47938;48.176;16.414;2022-09-09T10:09:57;24.20;50.70
61979;DHT22;47938;48.176;16.414;2022-09-09T10:12:46;24.20;51.40
61979;DHT22;47938;48.176;16.414;2022-09-09T10:29:22;24.90;49.30
61979;DHT22;47938;48.176;16.414;2022-09-09T10:42:45;24.60;51.60
61979;DHT22;47938;48.176;16.414;2022-09-09T10:45:20;24.30;51.20
61979;DHT22;47938;48.176;16.414;2022-09-09T10:48:27;24.10;52.60
61979;DHT22;47938;48.176;16.414;2022-09-09T10:51:08;24.40;51.30
61979;DHT22;47938;48.176;16.414;2022-09-09T10:56:43;25.00;49.10
61979;DHT22;47938;48.176;16.414;2022-09-09T10:59:16;25.00;48.20
61979;DHT22;47938;48.176;16.414;2022-09-09T11:01:49;25.10;47.40
61979;DHT22;47938;48.176;16.414;2022-09-09T11:05:21;24.80;47.90
61979;DHT22;47938;48.176;16.414;2022-09-09T11:07:41;24.40;48.50
61979;DHT22;47938;48.176;16.414;2022-09-09T11:10:34;24.50;49.20
61979;DHT22;47938;48.176;16.414;2022-09-09T11:13:05;24.50;47.50
61979;DHT22;47938;48.176;16.414;2022-09-09T11:15:36;24.50;47.50
61979;DHT22;47938;48.176;16.414;2022-09-09T11:18:04;24.60;47.20
61979;DHT22;47938;48.176;16.414;2022-09-09T11:20:31;24.60;47.50
61979;DHT22;47938;48.176;16.414;2022-09-09T11:23:35;24.60;47.30
61979;DHT22;47938;48.176;16.414;2022-09-09T11:25:57;24.70;47.30
61979;DHT22;47938;48.176;16.414;2022-09-09T11:38:56;24.90;45.60
61979;DHT22;47938;48.176;16.414;2022-09-09T11:41:36;24.30;46.10
61979;DHT22;47938;48.176;16.414;2022-09-09T11:44:16;24.20;47.00
61979;DHT22;47938;48.176;16.414;2022-09-09T11:46:44;24.40;47.80
61979;DHT22;47938;48.176;16.414;2022-09-09T11:49:41;24.10;47.10
61979;DHT22;47938;48.176;16.414;2022-09-09T11:52:39;24.30;48.20
61979;DHT22;47938;48.176;16.414;2022-09-09T11:58:01;24.70;45.50
61979;DHT22;47938;48.176;16.414;2022-09-09T12:02:56;24.60;46.30
61979;DHT22;47938;48.176;16.414;2022-09-09T12:05:22;24.80;46.20
61979;DHT22;47938;48.176;16.414;2022-09-09T12:07:55;24.90;45.80
61979;DHT22;47938;48.176;16.414;2022-09-09T12:10:35;25.00;45.60
61979;DHT22;47938;48.176;16.414;2022-09-09T12:13:20;24.70;46.50
61979;DHT22;47938;48.176;16.414;2022-09-09T12:15:53;24.90;45.80
61979;DHT22;47938;48.176;16.414;2022-09-09T12:18:39;25.20;45.50
61979;DHT22;47938;48.176;16.414;2022-09-09T12:23:58;25.20;44.60
61979;DHT22;47938;48.176;16.414;2022-09-09T12:26:34;25.00;44.60
61979;DHT22;47938;48.176;16.414;2022-09-09T12:34:59;24.10;46.70
61979;DHT22;47938;48.176;16.414;2022-09-09T12:37:37;24.00;45.50
61979;DHT22;47938;48.176;16.414;2022-09-09T12:40:05;24.20;46.10
61979;DHT22;47938;48.176;16.414;2022-09-09T12:42:31;24.20;45.40
61979;DHT22;47938;48.176;16.414;2022-09-09T12:45:02;24.50;44.30
61979;DHT22;47938;48.176;16.414;2022-09-09T12:47:41;24.60;44.60
61979;DHT22;47938;48.176;16.414;2022-09-09T12:50:19;24.50;44.40
61979;DHT22;47938;48.176;16.414;2022-09-09T12:52:45;24.10;44.50
61979;DHT22;47938;48.176;16.414;2022-09-09T12:55:23;23.90;45.60
61979;DHT22;47938;48.176;16.414;2022-09-09T12:57:49;23.80;46.90
61979;DHT22;47938;48.176;16.414;2022-09-09T13:00:17;24.30;46.80
61979;DHT22;47938;48.176;16.414;2022-09-09T13:02:55;24.30;45.90
61979;DHT22;47938;48.176;16.414;2022-09-09T13:05:27;23.90;46.30
61979;DHT22;47938;48.176;16.414;2022-09-09T13:08:07;23.90;46.10
61979;DHT22;47938;48.176;16.414;2022-09-09T13:10:57;24.20;46.50
61979;DHT22;47938;48.176;16.414;2022-09-09T13:13:24;23.90;46.60
61979;DHT22;47938;48.176;16.414;2022-09-09T13:15:56;23.70;48.00
61979;DHT22;47938;48.176;16.414;2022-09-09T13:18:24;23.70;46.50
61979;DHT22;47938;48.176;16.414;2022-09-09T13:20:51;23.60;47.20
61979;DHT22;47938;48.176;16.414;2022-09-09T13:23:18;23.70;47.20
61979;DHT22;47938;48.176;16.414;2022-09-09T13:25:59;23.90;46.90
61979;DHT22;47938;48.176;16.414;2022-09-09T13:28:28;23.90;45.80
61979;DHT22;47938;48.176;16.414;2022-09-09T13:31:00;23.90;46.30
61979;DHT22;47938;48.176;16.414;2022-09-09T13:33:37;24.00;46.30
61979;DHT22;47938;48.176;16.414;2022-09-09T13:36:10;23.90;45.90
61979;DHT22;47938;48.176;16.414;2022-09-09T13:38:40;23.90;46.30
61979;DHT22;47938;48.176;16.414;2022-09-09T13:41:28;23.60;45.90
61979;DHT22;47938;48.176;16.414;2022-09-09T13:43:54;23.40;46.80
61979;DHT22;47938;48.176;16.414;2022-09-09T13:46:41;23.40;46.50
61979;DHT22;47938;48.176;16.414;2022-09-09T13:51:37;23.10;48.20
61979;DHT22;47938;48.176;16.414;2022-09-09T13:54:08;23.00;48.70
61979;DHT22;47938;48.176;16.414;2022-09-09T13:56:34;23.00;48.50
61979;DHT22;47938;48.176;16.414;2022-09-09T13:59:00;23.10;49.00
61979;DHT22;47938;48.176;16.414;2022-09-09T14:01:27;23.00;48.90
61979;DHT22;47938;48.176;16.414;2022-09-09T14:03:52;23.00;48.70
61979;DHT22;47938;48.176;16.414;2022-09-09T14:06:18;22.90;48.30
61979;DHT22;47938;48.176;16.414;2022-09-09T14:08:44;22.90;47.90
61979;DHT22;47938;48.176;16.414;2022-09-09T14:11:12;22.90;48.30
61979;DHT22;47938;48.176;16.414;2022-09-09T14:13:37;22.80;48.50
61979;DHT22;47938;48.176;16.414;2022-09-09T14:16:03;22.80;48.20
61979;DHT22;47938;48.176;16.414;2022-09-09T14:18:29;22.90;48.20
61979;DHT22;47938;48.176;16.414;2022-09-09T14:20:54;22.90;48.00
61979;DHT22;47938;48.176;16.414;2022-09-09T14:23:20;22.90;48.20
61979;DHT22;47938;48.176;16.414;2022-09-09T14:25:46;22.80;48.20
61979;DHT22;47938;48.176;16.414;2022-09-09T14:28:13;22.80;46.80
61979;DHT22;47938;48.176;16.414;2022-09-09T14:30:40;22.70;46.50
61979;DHT22;47938;48.176;16.414;2022-09-09T14:33:06;22.70;46.80
61979;DHT22;47938;48.176;16.414;2022-09-09T14:35:32;22.80;46.50
61979;DHT22;47938;48.176;16.414;2022-09-09T14:37:58;22.80;47.20
61979;DHT22;47938;48.176;16.414;2022-09-09T14:40:23;22.90;46.70
61979;DHT22;47938;48.176;16.414;2022-09-09T14:42:49;22.90;46.50
61979;DHT22;47938;48.176;16.414;2022-09-09T14:45:14;22.90;46.60
61979;DHT22;47938;48.176;16.414;2022-09-09T14:47:40;22.90;50.20
61979;DHT22;47938;48.176;16.414;2022-09-09T14:50:06;22.90;52.80
61979;DHT22;47938;48.176;16.414;2022-09-09T14:52:32;23.00;53.90
61979;DHT22;47938;48.176;16.414;2022-09-09T14:54:57;23.00;54.80
61979;DHT22;47938;48.176;16.414;2022-09-09T14:57:23;22.80;56.40
61979;DHT22;47938;48.176;16.414;2022-09-09T14:59:48;22.80;57.10
61979;DHT22;47938;48.176;16.414;2022-09-09T15:02:14;22.70;57.70
61979;DHT22;47938;48.176;16.414;2022-09-09T15:04:39;22.50;58.80
61979;DHT22;47938;48.176;16.414;2022-09-09T15:07:05;22.10;59.80
61979;DHT22;47938;48.176;16.414;2022-09-09T15:09:31;22.00;60.80
61979;DHT22;47938;48.176;16.414;2022-09-09T15:11:56;22.00;61.10
61979;DHT22;47938;48.176;16.414;2022-09-09T15:14:22;22.10;61.00
61979;DHT22;47938;48.176;16.414;2022-09-09T15:16:47;22.30;60.20
61979;DHT22;47938;48.176;16.414;2022-09-09T15:19:13;22.20;59.20
61979;DHT22;47938;48.176;16.414;2022-09-09T15:21:39;22.00;59.40
61979;DHT22;47938;48.176;16.414;2022-09-09T15:24:05;21.90;60.00
61979;DHT22;47938;48.176;16.414;2022-09-09T15:26:31;21.80;59.50
61979;DHT22;47938;48.176;16.414;2022-09-09T15:28:56;21.70;60.40
61979;DHT22;47938;48.176;16.414;2022-09-09T15:31:24;21.70;60.80
61979;DHT22;47938;48.176;16.414;2022-09-09T15:33:50;21.70;60.80
61979;DHT22;47938;48.176;16.414;2022-09-09T15:36:21;21.70;61.30
61979;DHT22;47938;48.176;16.414;2022-09-09T15:38:48;21.70;62.10
61979;DHT22;47938;48.176;16.414;2022-09-09T15:41:14;21.50;62.90
61979;DHT22;47938;48.176;16.414;2022-09-09T15:43:48;21.50;63.50
61979;DHT22;47938;48.176;16.414;2022-09-09T15:46:35;21.40;63.80
61979;DHT22;47938;48.176;16.414;2022-09-09T15:49:09;21.40;64.30
61979;DHT22;47938;48.176;16.414;2022-09-09T15:51:36;21.40;64.20
61979;DHT22;47938;48.176;16.414;2022-09-09T15:54:01;21.40;63.80
61979;DHT22;47938;48.176;16.414;2022-09-09T15:56:28;21.20;64.60
61979;DHT22;47938;48.176;16.414;2022-09-09T15:58:59;21.20;65.10
61979;DHT22;47938;48.176;16.414;2022-09-09T16:01:26;21.30;65.00
61979;DHT22;47938;48.176;16.414;2022-09-09T16:03:52;21.30;65.00
61979;DHT22;47938;48.176;16.414;2022-09-09T16:06:19;21.20;65.00
61979;DHT22;47938;48.176;16.414;2022-09-09T16:08:45;21.20;65.50
61979;DHT22;47938;48.176;16.414;2022-09-09T16:11:14;21.20;65.40
61979;DHT22;47938;48.176;16.414;2022-09-09T16:13:44;21.20;65.40
61979;DHT22;47938;48.176;16.414;2022-09-09T16:16:11;21.30;65.30
61979;DHT22;47938;48.176;16.414;2022-09-09T16:18:41;21.30;65.20
61979;DHT22;47938;48.176;16.414;2022-09-09T16:21:08;21.20;65.00
61979;DHT22;47938;48.176;16.414;2022-09-09T16:23:36;21.20;65.30
61979;DHT22;47938;48.176;16.414;2022-09-09T16:26:02;21.20;65.50
61979;DHT22;47938;48.176;16.414;2022-09-09T16:28:28;21.10;65.90
61979;DHT22;47938;48.176;16.414;2022-09-09T16:30:54;21.00;66.80
61979;DHT22;47938;48.176;16.414;2022-09-09T16:33:19;20.90;67.80
61979;DHT22;47938;48.176;16.414;2022-09-09T16:35:45;20.80;68.30
61979;DHT22;47938;48.176;16.414;2022-09-09T16:38:11;20.80;69.00
61979;DHT22;47938;48.176;16.414;2022-09-09T16:40:37;20.80;69.40
61979;DHT22;47938;48.176;16.414;2022-09-09T16:43:05;20.80;68.60
61979;DHT22;47938;48.176;16.414;2022-09-09T16:45:31;20.60;69.00
61979;DHT22;47938;48.176;16.414;2022-09-09T16:47:57;20.40;69.30
61979;DHT22;47938;48.176;16.414;2022-09-09T16:50:22;20.30;70.80
61979;DHT22;47938;48.176;16.414;2022-09-09T16:52:48;20.30;70.60
61979;DHT22;47938;48.176;16.414;2022-09-09T16:55:13;20.30;71.70
61979;DHT22;47938;48.176;16.414;2022-09-09T16:57:39;20.30;72.00
61979;DHT22;47938;48.176;16.414;2022-09-09T17:00:05;20.40;72.20
61979;DHT22;47938;48.176;16.414;2022-09-09T17:02:31;20.40;72.20
61979;DHT22;47938;48.176;16.414;2022-09-09T17:04:56;20.30;72.30
61979;DHT22;47938;48.176;16.414;2022-09-09T17:07:22;20.30;73.10
61979;DHT22;47938;48.176;16.414;2022-09-09T17:09:48;20.20;73.60
61979;DHT22;47938;48.176;16.414;2022-09-09T17:12:14;20.20;74.10
61979;DHT22;47938;48.176;16.414;2022-09-09T17:14:39;20.20;74.70
61979;DHT22;47938;48.176;16.414;2022-09-09T17:17:05;20.30;74.10
61979;DHT22;47938;48.176;16.414;2022-09-09T17:19:31;20.20;73.10
61979;DHT22;47938;48.176;16.414;2022-09-09T17:21:56;20.20;72.20
61979;DHT22;47938;48.176;16.414;2022-09-09T17:24:22;20.00;72.60
61979;DHT22;47938;48.176;16.414;2022-09-09T17:26:48;19.80;75.40
61979;DHT22;47938;48.176;16.414;2022-09-09T17:29:13;19.70;80.40
61979;DHT22;47938;48.176;16.414;2022-09-09T17:31:39;19.50;88.60